Time;durP1;ratioP1;P1;durP2;ratioP2;P2;SDS_P1;SDS_P2;PMS_P1;PMS_P2;Temp;Humidity;BMP_temperature;BMP_pressure;BME280_temperature;BME280_humidity;BME280_pressure;Samples;Min_cycle;Max_cycle;Signal;HPM_P1;HPM_P2
2021/04/07 00:01:59;;;;;;;3.63;0.93;;;;;;;1.05;71.58;99779.53;5079217;28;20036;-70
2021/04/07 00:04:24;;;;;;;4.93;1.17;;;;;;;1.03;72.38;99770.84;5082644;28;20134;-70
2021/04/07 00:06:54;;;;;;;10.15;1.45;;;;;;;1.02;71.84;99769.97;5067965;28;20102;-70
2021/04/07 00:09:19;;;;;;;5.33;1.13;;;;;;;1.03;71.27;99773.44;5061990;28;20036;-70
2021/04/07 00:11:44;;;;;;;4.93;1.20;;;;;;;1.02;71.97;99772.56;5064030;28;20036;-70
2021/04/07 00:14:10;;;;;;;4.20;1.03;;;;;;;1.05;71.63;99769.16;5063510;28;20103;-70
2021/04/07 00:16:35;;;;;;;4.57;1.00;;;;;;;1.08;71.20;99771.81;5062101;28;20123;-70
2021/04/07 00:19:02;;;;;;;3.67;1.20;;;;;;;1.09;70.36;99774.41;5061841;28;20082;-69
2021/04/07 00:21:27;;;;;;;3.37;1.30;;;;;;;1.09;70.07;99765.75;5059006;28;20499;-69
2021/04/07 00:23:52;;;;;;;4.50;0.90;;;;;;;1.16;69.84;99770.22;5058964;28;20078;-70
2021/04/07 00:26:18;;;;;;;4.57;1.20;;;;;;;1.13;69.22;99777.06;5061370;28;20132;-70
2021/04/07 00:28:44;;;;;;;6.97;1.40;;;;;;;1.08;69.55;99779.59;5065751;28;20028;-70
2021/04/07 00:31:09;;;;;;;5.50;1.50;;;;;;;1.07;68.69;99783.03;5064333;28;20372;-69
2021/04/07 00:33:34;;;;;;;4.17;1.07;;;;;;;1.14;68.44;99786.63;5062840;28;20036;-70
2021/04/07 00:36:00;;;;;;;5.05;1.38;;;;;;;1.08;68.65;99774.41;5073318;28;20067;-70
2021/04/07 00:38:25;;;;;;;4.10;1.17;;;;;;;1.05;68.40;99775.22;5062548;28;20442;-70
2021/04/07 00:40:51;;;;;;;6.47;1.07;;;;;;;0.99;68.50;99785.47;5062401;28;20033;-70
2021/04/07 00:43:17;;;;;;;6.90;1.50;;;;;;;0.99;68.87;99782.00;5064970;28;20037;-70
2021/04/07 00:45:42;;;;;;;4.60;1.20;;;;;;;1.01;69.15;99780.31;5065687;28;20031;-70
2021/04/07 00:48:08;;;;;;;4.77;1.47;;;;;;;1.05;69.49;99792.53;5064308;28;20517;-70
2021/04/07 00:50:34;;;;;;;7.43;1.43;;;;;;;0.99;69.04;99790.66;5062432;28;20470;-70
2021/04/07 00:53:00;;;;;;;4.43;1.30;;;;;;;1.06;68.83;99786.47;5041288;28;20041;-70
2021/04/07 00:55:29;;;;;;;3.93;1.20;;;;;;;1.03;69.70;99789.03;5061917;28;20548;-70
2021/04/07 00:57:56;;;;;;;5.37;1.33;;;;;;;1.05;69.12;99790.81;5061969;28;20380;-70
2021/04/07 01:00:23;;;;;;;4.93;1.30;;;;;;;0.98;69.00;99799.31;5065230;28;20037;-70
2021/04/07 01:02:57;;;;;;;5.53;1.20;;;;;;;1.04;69.36;99798.56;5065687;28;20402;-69
2021/04/07 01:05:24;;;;;;;5.13;1.30;;;;;;;1.07;68.95;99798.63;5061743;28;20045;-70
2021/04/07 01:07:49;;;;;;;5.43;1.50;;;;;;;1.06;69.13;99789.09;5062255;28;20349;-70
2021/04/07 01:10:16;;;;;;;6.67;1.50;;;;;;;1.08;68.85;99805.59;5064257;28;20048;-69
2021/04/07 01:12:43;;;;;;;4.67;1.47;;;;;;;1.03;68.86;99802.88;5065612;28;20390;-70
2021/04/07 01:15:10;;;;;;;4.40;1.57;;;;;;;1.06;68.58;99787.34;5063503;28;20032;-69
2021/04/07 01:17:35;;;;;;;5.20;1.60;;;;;;;1.00;69.43;99795.03;5061771;28;20049;-70
2021/04/07 01:20:05;;;;;;;6.40;1.60;;;;;;;1.01;69.13;99793.31;5062076;28;20091;-70
2021/04/07 01:22:32;;;;;;;4.40;1.53;;;;;;;1.05;69.78;99796.00;5065272;28;20032;-70
2021/04/07 01:24:59;;;;;;;6.00;1.67;;;;;;;1.03;69.27;99802.03;5064828;28;20075;-70
2021/04/07 01:27:24;;;;;;;4.30;1.70;;;;;;;1.03;68.80;99792.50;5061378;28;20048;-70
2021/04/07 01:29:49;;;;;;;6.13;2.00;;;;;;;0.99;69.71;99795.88;5061511;28;20029;-70
2021/04/07 01:32:15;;;;;;;5.53;2.00;;;;;;;0.97;69.15;99791.47;5063771;28;20033;-70
2021/04/07 01:34:44;;;;;;;5.87;1.87;;;;;;;1.00;70.15;99794.16;5065004;28;20107;-70
2021/04/07 01:37:14;;;;;;;4.17;1.73;;;;;;;0.98;69.54;99808.84;5062908;28;20032;-70
2021/04/07 01:39:40;;;;;;;5.63;1.97;;;;;;;0.86;70.10;99799.94;5060827;28;20417;-70
2021/04/07 01:42:06;;;;;;;5.00;2.17;;;;;;;0.83;70.62;99794.66;5062166;28;20025;-70
2021/04/07 01:44:33;;;;;;;5.10;2.07;;;;;;;0.86;70.45;99836.31;5064675;28;20041;-70
2021/04/07 01:47:00;;;;;;;5.80;1.80;;;;;;;0.91;69.83;99813.00;5064233;28;20109;-70
2021/04/07 01:49:26;;;;;;;5.73;2.23;;;;;;;0.88;69.51;99811.22;5061204;28;20059;-70
2021/04/07 01:51:52;;;;;;;5.60;1.70;;;;;;;0.82;70.16;99813.72;5061106;28;20076;-70
2021/04/07 01:54:17;;;;;;;5.93;2.00;;;;;;;0.86;70.23;99815.53;5063600;28;20060;-69
2021/04/07 01:56:53;;;;;;;5.23;2.27;;;;;;;0.95;69.85;99814.84;5063996;28;20040;-70
2021/04/07 01:59:21;;;;;;;5.43;2.20;;;;;;;0.90;70.49;99813.00;5061616;28;20505;-70
2021/04/07 02:01:46;;;;;;;6.97;2.27;;;;;;;1.01;70.35;99817.56;5060949;28;20064;-70
2021/04/07 02:04:14;;;;;;;4.33;1.73;;;;;;;0.95;70.31;99817.44;5062686;28;20079;-70
2021/04/07 02:06:39;;;;;;;5.37;2.10;;;;;;;1.00;69.98;99821.03;5064249;28;20041;-70
2021/04/07 02:09:09;;;;;;;6.10;2.00;;;;;;;0.98;70.29;99824.44;5063217;28;20526;-70
2021/04/07 02:11:38;;;;;;;4.37;2.17;;;;;;;1.02;70.42;99841.81;5060832;28;20395;-70
2021/04/07 02:14:03;;;;;;;5.77;2.10;;;;;;;1.01;70.17;99840.06;5061431;28;20029;-70
2021/04/07 02:16:28;;;;;;;6.80;2.33;;;;;;;1.05;69.83;99832.38;5063728;28;20033;-70
2021/04/07 02:18:54;;;;;;;5.50;2.20;;;;;;;1.13;70.10;99831.66;5064044;28;20185;-69
2021/04/07 02:21:19;;;;;;;6.77;1.83;;;;;;;1.06;69.94;99828.06;5061097;28;20419;-70
2021/04/07 02:23:45;;;;;;;8.97;2.17;;;;;;;1.09;70.09;99836.78;5060429;28;20488;-70
2021/04/07 02:26:10;;;;;;;6.90;2.00;;;;;;;1.07;70.00;99835.91;5061794;28;20037;-69
2021/04/07 02:28:36;;;;;;;5.30;2.43;;;;;;;1.07;70.56;99835.91;5063922;28;20036;-71
2021/04/07 02:31:02;;;;;;;5.37;2.10;;;;;;;1.13;70.03;99844.63;5066342;28;20090;-70
2021/04/07 02:33:27;;;;;;;5.03;2.03;;;;;;;1.15;69.82;99842.97;5063938;28;20055;-70
2021/04/07 02:35:53;;;;;;;6.57;2.40;;;;;;;1.11;69.86;99839.44;5063503;28;20033;-69
2021/04/07 02:38:19;;;;;;;5.60;2.50;;;;;;;1.15;70.18;99848.16;5060902;28;20099;-70
2021/04/07 02:40:44;;;;;;;8.47;2.50;;;;;;;1.14;70.50;99862.00;5069158;28;20032;-70
2021/04/07 02:43:09;;;;;;;5.23;2.10;;;;;;;1.15;70.35;99849.03;5061968;28;20048;-70
2021/04/07 02:45:35;;;;;;;4.40;2.67;;;;;;;1.19;70.08;99852.59;5059947;28;20033;-70
2021/04/07 02:48:00;;;;;;;5.80;2.43;;;;;;;1.17;70.43;99856.88;5060248;28;20112;-70
2021/04/07 02:50:26;;;;;;;6.73;2.53;;;;;;;1.18;70.31;99854.31;5062806;28;20036;-70
2021/04/07 02:52:51;;;;;;;6.37;2.57;;;;;;;1.14;70.71;99857.69;5063271;28;20028;-70
2021/04/07 02:55:16;;;;;;;4.73;2.50;;;;;;;1.12;70.81;99848.97;5060623;28;20116;-70
2021/04/07 02:57:42;;;;;;;7.20;2.47;;;;;;;1.09;71.12;99856.72;5059705;28;20033;-70
2021/04/07 03:00:09;;;;;;;5.53;2.40;;;;;;;1.16;72.18;99852.53;5061096;28;20096;-70
2021/04/07 03:02:35;;;;;;;8.40;3.20;;;;;;;1.22;71.48;99856.13;5068496;28;20495;-70
2021/04/07 03:05:00;;;;;;;5.37;2.57;;;;;;;1.18;71.18;99856.91;5070616;28;20066;-70
2021/04/07 03:07:26;;;;;;;5.60;2.50;;;;;;;1.12;71.60;99856.75;5059556;28;20044;-71
2021/04/07 03:09:51;;;;;;;7.30;3.07;;;;;;;1.16;70.94;99849.94;5059649;28;20056;-71
2021/04/07 03:12:17;;;;;;;7.13;2.37;;;;;;;1.10;71.59;99845.44;5062297;28;20056;-71
2021/04/07 03:14:43;;;;;;;7.73;2.90;;;;;;;1.16;71.38;99849.94;5063117;28;20521;-71
2021/04/07 03:17:09;;;;;;;6.47;2.60;;;;;;;1.19;71.19;99856.06;5061359;28;20545;-70
2021/04/07 03:19:34;;;;;;;6.03;2.53;;;;;;;1.18;71.92;99858.63;5041647;28;20032;-70
2021/04/07 03:22:00;;;;;;;10.03;3.10;;;;;;;1.16;71.38;99871.59;5059652;28;20052;-71
2021/04/07 03:24:25;;;;;;;6.53;2.77;;;;;;;1.13;72.14;99862.84;5062806;28;20037;-71
2021/04/07 03:26:50;;;;;;;6.33;2.93;;;;;;;1.20;71.86;99862.13;5062536;28;20048;-71
2021/04/07 03:29:16;;;;;;;6.33;3.07;;;;;;;1.15;71.41;99876.75;5060435;28;20487;-71
2021/04/07 03:31:41;;;;;;;6.70;2.43;;;;;;;1.13;72.04;99870.63;5059310;28;20072;-71
2021/04/07 03:34:06;;;;;;;6.47;2.70;;;;;;;1.16;71.82;99875.91;5060455;28;20040;-71
2021/04/07 03:36:32;;;;;;;9.37;3.73;;;;;;;1.18;72.21;99869.91;5062375;28;20037;-71
2021/04/07 03:38:57;;;;;;;5.53;2.97;;;;;;;1.18;71.68;99869.91;5062602;28;20040;-70
2021/04/07 03:41:22;;;;;;;5.50;3.10;;;;;;;1.16;72.29;99871.59;5059475;28;20036;-70
2021/04/07 03:43:48;;;;;;;7.57;3.43;;;;;;;1.21;71.84;99872.56;5056256;28;20403;-71
2021/04/07 03:46:16;;;;;;;7.40;3.83;;;;;;;1.21;71.96;99885.56;5059733;28;20028;-70
2021/04/07 03:48:41;;;;;;;6.80;3.80;;;;;;;1.19;72.17;99876.84;5064975;28;20475;-71
2021/04/07 03:51:06;;;;;;;8.73;3.73;;;;;;;1.15;72.00;99885.41;5070002;28;20032;-72
2021/04/07 03:53:32;;;;;;;7.43;3.57;;;;;;;1.18;71.94;99880.31;5059216;28;20063;-72
2021/04/07 03:55:57;;;;;;;7.10;4.13;;;;;;;1.11;72.69;99888.81;5058772;28;20812;-73
2021/04/07 03:58:23;;;;;;;8.00;3.50;;;;;;;1.12;72.85;99895.75;5062546;28;20029;-73
2021/04/07 04:00:49;;;;;;;8.40;4.57;;;;;;;1.11;73.07;99898.34;5059049;28;20420;-73
2021/04/07 04:03:15;;;;;;;9.77;4.43;;;;;;;1.14;72.87;99901.88;5072797;28;20036;-71
2021/04/07 04:05:40;;;;;;;9.80;4.33;;;;;;;1.21;72.95;99906.38;5074396;28;20032;-71
2021/04/07 04:08:07;;;;;;;8.13;4.30;;;;;;;1.12;73.36;99913.94;5065517;28;20044;-71
2021/04/07 04:10:33;;;;;;;11.30;5.10;;;;;;;1.10;73.34;99910.44;5063079;28;20045;-71
2021/04/07 04:12:59;;;;;;;8.80;4.30;;;;;;;1.17;73.19;99919.25;5062950;28;20079;-71
2021/04/07 04:15:25;;;;;;;9.77;4.43;;;;;;;1.09;73.81;99921.69;5066221;28;20025;-71
2021/04/07 04:17:50;;;;;;;11.83;5.80;;;;;;;1.12;73.63;99919.16;5066486;28;20556;-71
2021/04/07 04:20:16;;;;;;;8.40;4.57;;;;;;;1.13;73.48;99923.50;5064001;28;20617;-71
2021/04/07 04:22:42;;;;;;;10.80;5.00;;;;;;;1.15;73.18;99921.81;5062830;28;20029;-71
2021/04/07 04:25:11;;;;;;;8.33;4.87;;;;;;;1.13;73.09;99920.00;5063721;28;20040;-71
2021/04/07 04:27:38;;;;;;;8.83;5.20;;;;;;;1.15;73.17;99928.72;5066199;28;20486;-71
2021/04/07 04:30:05;;;;;;;9.77;5.70;;;;;;;1.18;73.84;99919.28;5065403;28;20073;-71
2021/04/07 04:32:30;;;;;;;7.77;4.60;;;;;;;1.22;73.19;99923.69;5062621;28;20079;-71
2021/04/07 04:34:56;;;;;;;8.27;5.00;;;;;;;1.24;73.67;99936.75;5062499;28;20032;-71
2021/04/07 04:37:21;;;;;;;8.90;4.93;;;;;;;1.24;73.39;99932.41;5065406;28;20040;-71
2021/04/07 04:39:46;;;;;;;8.20;4.40;;;;;;;1.24;73.53;99935.00;5065922;28;20031;-71
2021/04/07 04:42:12;;;;;;;7.23;4.40;;;;;;;1.18;73.91;99945.28;5078766;28;20032;-71
2021/04/07 04:44:37;;;;;;;10.20;4.40;;;;;;;1.19;73.43;99947.03;5077251;28;20045;-71
2021/04/07 04:47:02;;;;;;;11.20;5.47;;;;;;;1.22;73.66;99954.91;5065096;28;20032;-71
2021/04/07 04:49:28;;;;;;;9.33;4.73;;;;;;;1.26;73.43;99953.25;5062333;28;20119;-71
2021/04/07 04:51:53;;;;;;;10.50;5.07;;;;;;;1.22;73.71;99957.50;5062299;28;20047;-71
2021/04/07 04:54:18;;;;;;;11.40;5.40;;;;;;;1.22;74.21;99960.09;5065002;28;20036;-71
2021/04/07 04:56:44;;;;;;;9.50;4.73;;;;;;;1.25;73.39;99954.09;5065020;28;20029;-71
2021/04/07 04:59:09;;;;;;;11.03;5.67;;;;;;;1.28;73.62;99965.44;5064081;28;20402;-71
2021/04/07 05:01:35;;;;;;;10.90;5.60;;;;;;;1.36;73.63;99965.59;5062143;28;20035;-71
2021/04/07 05:04:06;;;;;;;10.83;5.70;;;;;;;1.31;73.61;99975.91;5062161;28;20037;-71
2021/04/07 05:06:33;;;;;;;13.23;5.80;;;;;;;1.27;74.21;99971.47;5065271;28;20111;-71
2021/04/07 05:08:59;;;;;;;9.73;5.67;;;;;;;1.31;73.93;99981.13;5065348;28;20090;-71
2021/04/07 05:11:24;;;;;;;9.70;5.63;;;;;;;1.31;73.81;99981.13;5061999;28;20510;-71
2021/04/07 05:13:50;;;;;;;12.07;5.37;;;;;;;1.22;74.78;99983.47;5060870;28;20032;-71
2021/04/07 05:16:15;;;;;;;10.83;5.97;;;;;;;1.21;75.36;99981.75;5063696;28;20584;-71
2021/04/07 05:18:40;;;;;;;10.53;6.00;;;;;;;1.18;75.70;99976.47;5065263;28;20032;-71
2021/04/07 05:21:06;;;;;;;11.67;6.27;;;;;;;1.20;75.82;99990.38;5064190;28;20037;-71
2021/04/07 05:23:31;;;;;;;10.10;5.70;;;;;;;1.17;76.27;99992.91;5061725;28;20555;-71
2021/04/07 05:25:56;;;;;;;11.53;5.53;;;;;;;1.25;75.93;99993.06;5061343;28;20459;-71
2021/04/07 05:28:22;;;;;;;11.97;6.23;;;;;;;1.25;76.65;100000.88;5064859;28;20477;-71
2021/04/07 05:31:00;;;;;;;9.70;5.95;;;;;;;1.25;76.03;100006.06;5064845;28;20078;-71
2021/04/07 05:33:26;;;;;;;10.52;5.93;;;;;;;1.28;75.79;100013.94;5043742;28;20037;-71
2021/04/07 05:35:55;;;;;;;11.77;6.03;;;;;;;1.21;76.32;100018.13;5061166;28;20037;-71
2021/04/07 05:38:22;;;;;;;10.27;5.10;;;;;;;1.12;77.19;100036.09;5064351;28;20114;-71
2021/04/07 05:40:49;;;;;;;8.63;5.10;;;;;;;1.05;77.35;100036.81;5064780;28;20086;-71
2021/04/07 05:43:15;;;;;;;8.93;4.80;;;;;;;1.05;77.59;100034.22;5062422;28;20506;-71
2021/04/07 05:45:40;;;;;;;6.37;4.13;;;;;;;1.09;77.56;100038.63;5061160;28;20060;-71
2021/04/07 05:48:07;;;;;;;6.03;4.47;;;;;;;1.16;76.97;100037.94;5062114;28;20075;-71
2021/04/07 05:50:35;;;;;;;6.27;3.80;;;;;;;1.19;76.65;100043.22;5064634;28;20028;-71
2021/04/07 05:53:00;;;;;;;9.67;4.20;;;;;;;1.17;76.75;100037.09;5064331;28;20043;-71
2021/04/07 05:55:26;;;;;;;7.10;4.37;;;;;;;1.26;76.27;100050.31;5060933;28;20021;-71
2021/04/07 05:58:06;;;;;;;7.10;3.87;;;;;;;1.26;76.00;100042.53;5060675;28;20047;-71
2021/04/07 06:00:32;;;;;;;8.60;4.50;;;;;;;1.26;76.39;100045.13;5118713;22;20127;-74
2021/04/07 06:02:58;;;;;;;7.37;4.17;;;;;;;1.34;75.87;100052.19;5060701;28;20032;-74
2021/04/07 06:05:27;;;;;;;8.47;4.27;;;;;;;1.43;75.38;100063.69;5063930;28;20575;-74
2021/04/07 06:07:53;;;;;;;9.27;4.40;;;;;;;1.44;75.97;100061.97;5046201;28;20032;-75
2021/04/07 06:10:18;;;;;;;8.57;4.60;;;;;;;1.40;74.75;100067.97;5064058;28;20041;-74
2021/04/07 06:12:44;;;;;;;15.63;5.10;;;;;;;1.31;75.01;100058.22;5054474;28;20043;-75
2021/04/07 06:15:11;;;;;;;8.33;5.10;;;;;;;1.31;75.20;100066.91;5072204;28;20032;-74
2021/04/07 06:17:38;;;;;;;9.27;4.63;;;;;;;1.30;75.04;100057.31;5072217;28;20494;-74
2021/04/07 06:20:08;;;;;;;10.60;5.37;;;;;;;1.35;75.20;100064.38;5062684;28;20040;-74
2021/04/07 06:22:33;;;;;;;9.97;4.70;;;;;;;1.45;73.92;100066.34;5072140;28;20043;-74
2021/04/07 06:24:59;;;;;;;9.90;4.73;;;;;;;1.41;73.99;100067.09;5071771;28;20036;-74
2021/04/07 06:27:25;;;;;;;9.47;4.80;;;;;;;1.42;74.31;100071.47;5046128;28;20074;-74
2021/04/07 06:29:50;;;;;;;12.32;4.90;;;;;;;1.56;73.80;100064.88;5071746;28;20037;-74
2021/04/07 06:32:15;;;;;;;7.57;4.35;;;;;;;1.52;73.42;100081.25;5071956;28;20070;-75
2021/04/07 06:34:41;;;;;;;12.35;4.68;;;;;;;1.54;73.46;100089.94;5053961;28;20056;-74
2021/04/07 06:37:06;;;;;;;10.68;5.72;;;;;;;1.48;73.93;100102.81;5071709;28;20028;-75
2021/04/07 06:39:31;;;;;;;8.43;4.57;;;;;;;1.51;72.94;100105.50;5053835;28;20044;-74
2021/04/07 06:41:57;;;;;;;9.50;5.00;;;;;;;1.51;73.88;100093.34;5071752;28;20486;-75
2021/04/07 06:44:22;;;;;;;11.43;5.70;;;;;;;1.51;73.60;100103.75;5071520;28;20071;-75
2021/04/07 06:46:48;;;;;;;12.93;5.73;;;;;;;1.61;73.07;100099.66;5071679;28;20074;-75
2021/04/07 06:49:15;;;;;;;13.50;6.18;;;;;;;1.68;73.37;100106.78;5071560;28;20036;-75
2021/04/07 06:51:42;;;;;;;10.07;5.85;;;;;;;1.94;72.55;100104.75;5071636;28;20044;-75
2021/04/07 06:54:08;;;;;;;13.52;5.68;;;;;;;2.03;72.16;100098.84;5075411;28;20553;-75
2021/04/07 06:56:35;;;;;;;13.80;5.38;;;;;;;2.15;72.06;100088.72;5078392;28;20154;-74
2021/04/07 06:59:00;;;;;;;13.82;5.55;;;;;;;2.31;71.28;100094.22;5071147;28;20430;-75
2021/04/07 07:01:26;;;;;;;8.80;4.78;;;;;;;2.40;69.96;100104.81;5071532;28;20039;-75
2021/04/07 07:03:51;;;;;;;11.85;5.45;;;;;;;2.37;69.79;100108.25;5071381;28;20036;-74
2021/04/07 07:06:17;;;;;;;14.95;5.20;;;;;;;2.43;68.98;100107.47;5071234;28;20033;-75
2021/04/07 07:08:43;;;;;;;10.00;4.03;;;;;;;2.49;68.54;100112.84;5053705;28;20142;-75
2021/04/07 07:11:11;;;;;;;14.85;4.55;;;;;;;2.40;68.29;100131.72;5045149;28;20131;-75
2021/04/07 07:13:36;;;;;;;12.88;4.53;;;;;;;2.44;68.65;100110.94;5071321;28;20060;-74
2021/04/07 07:16:02;;;;;;;11.70;4.25;;;;;;;2.53;67.50;100137.19;5071069;28;20063;-75
2021/04/07 07:18:28;;;;;;;14.15;4.53;;;;;;;2.44;66.16;100131.78;5053344;28;20388;-75
2021/04/07 07:20:55;;;;;;;11.63;3.58;;;;;;;2.42;65.92;100123.97;5071253;28;20067;-74
2021/04/07 07:23:28;;;;;;;9.85;3.03;;;;;;;2.48;64.24;100128.41;5053213;28;20032;-75
2021/04/07 07:25:58;;;;;;;10.90;3.50;;;;;;;2.37;64.44;100133.41;5052999;28;20458;-75
2021/04/07 07:28:24;;;;;;;14.27;4.22;;;;;;;2.32;64.57;100117.69;5071167;28;20032;-74
2021/04/07 07:30:50;;;;;;;8.90;2.92;;;;;;;2.43;64.83;100143.94;5053097;28;20041;-74
2021/04/07 07:33:20;;;;;;;9.27;3.42;;;;;;;2.58;63.57;100130.34;5071195;28;20097;-74
2021/04/07 07:35:48;;;;;;;11.07;2.83;;;;;;;2.74;63.56;100134.13;5070859;28;20032;-74
2021/04/07 07:38:24;;;;;;;9.48;3.28;;;;;;;2.79;63.47;100129.88;5070828;28;20406;-74
2021/04/07 07:41:07;;;;;;;10.95;3.13;;;;;;;3.07;63.15;100126.94;5071003;28;20082;-75
2021/04/07 07:43:34;;;;;;;9.40;3.13;;;;;;;3.23;61.66;100155.91;5063790;28;20040;-75
2021/04/07 07:46:11;;;;;;;11.50;3.50;;;;;;;3.03;62.18;100156.41;5070766;28;20036;-75
2021/04/07 07:48:37;;;;;;;12.52;3.15;;;;;;;3.32;62.18;100152.56;5070972;28;20175;-75
2021/04/07 07:51:15;;;;;;;13.18;3.10;;;;;;;3.29;62.37;100145.56;5070800;28;20048;-75
2021/04/07 07:53:43;;;;;;;10.77;2.67;;;;;;;3.32;61.25;100143.00;5070941;28;20032;-74
2021/04/07 07:56:09;;;;;;;11.32;3.28;;;;;;;3.32;61.94;100163.00;5052608;28;20406;-75
2021/04/07 07:58:41;;;;;;;12.73;4.70;;;;;;;3.12;63.05;100160.03;5070701;28;20040;-74
2021/04/07 08:01:07;;;;;;;13.13;3.88;;;;;;;3.07;63.08;100181.69;5070843;28;20074;-74
2021/04/07 08:03:33;;;;;;;13.48;4.25;;;;;;;3.01;63.74;100167.66;5070671;28;20138;-75
2021/04/07 08:06:00;;;;;;;12.93;4.72;;;;;;;3.04;63.21;100173.81;5070651;28;20495;-74
2021/04/07 08:08:26;;;;;;;14.52;4.60;;;;;;;3.24;63.50;100176.78;5062659;28;20036;-75
2021/04/07 08:10:53;;;;;;;13.50;4.70;;;;;;;3.27;63.35;100174.25;5070812;28;20031;-75
2021/04/07 08:13:19;;;;;;;11.68;3.53;;;;;;;3.27;61.95;100191.59;5070648;28;20150;-75
2021/04/07 08:15:45;;;;;;;10.27;3.40;;;;;;;3.14;62.36;100172.22;5052709;28;20044;-74
2021/04/07 08:18:11;;;;;;;10.95;3.65;;;;;;;3.13;63.21;100174.84;5070667;28;20086;-74
2021/04/07 08:20:38;;;;;;;9.13;3.10;;;;;;;3.24;62.88;100175.91;5070639;28;20035;-75
2021/04/07 08:23:06;;;;;;;8.68;2.90;;;;;;;3.40;62.34;100156.16;5070607;28;20044;-74
2021/04/07 08:25:31;;;;;;;8.48;2.58;;;;;;;3.42;62.05;100160.56;5070411;28;20127;-75
2021/04/07 08:27:59;;;;;;;11.27;2.72;;;;;;;3.41;62.12;100163.16;5070628;28;20078;-75
2021/04/07 08:30:25;;;;;;;9.93;2.13;;;;;;;3.61;60.95;100166.09;5062215;28;20028;-75
2021/04/07 08:32:52;;;;;;;10.88;2.22;;;;;;;3.97;60.09;100160.56;5070529;28;20075;-74
2021/04/07 08:35:19;;;;;;;9.38;2.20;;;;;;;4.10;59.98;100179.88;5052382;28;20025;-75
2021/04/07 08:37:56;;;;;;;9.98;2.08;;;;;;;4.39;59.94;100175.94;5070554;28;20041;-75
2021/04/07 08:40:22;;;;;;;10.68;2.65;;;;;;;4.41;57.91;100180.31;5052352;28;20497;-74
2021/04/07 08:42:47;;;;;;;12.23;3.30;;;;;;;4.35;57.03;100184.59;5070530;28;20044;-75
2021/04/07 08:45:13;;;;;;;9.48;2.50;;;;;;;4.18;57.53;100192.19;5070095;28;20040;-75
2021/04/07 08:48:02;;;;;;;7.47;2.40;;;;;;;4.17;57.84;100177.38;5070451;28;20089;-74
2021/04/07 08:50:31;;;;;;;9.30;2.47;;;;;;;4.11;57.33;100185.16;5047512;28;20512;-75
2021/04/07 08:52:56;;;;;;;7.45;1.73;;;;;;;4.12;57.17;100186.91;5073884;28;20036;-75
2021/04/07 08:55:27;;;;;;;9.15;2.80;;;;;;;3.97;58.03;100188.41;5073636;28;20036;-75
2021/04/07 08:58:03;;;;;;;8.00;2.50;;;;;;;3.94;57.67;100187.50;5073858;28;20061;-75
2021/04/07 09:00:34;;;;;;;4.68;2.03;;;;;;;4.08;57.36;100184.22;5065922;28;20052;-75
2021/04/07 09:03:09;;;;;;;8.25;2.30;;;;;;;4.44;57.49;100204.75;5073847;28;20032;-75
2021/04/07 09:05:40;;;;;;;7.72;2.53;;;;;;;4.74;56.56;100190.31;5066581;28;20042;-75
2021/04/07 09:08:08;;;;;;;7.45;2.13;;;;;;;4.68;55.71;100198.94;5076107;28;20040;-75
2021/04/07 09:10:45;;;;;;;7.85;2.05;;;;;;;4.41;55.48;100185.56;5073753;28;20090;-74
2021/04/07 09:13:16;;;;;;;8.45;2.55;;;;;;;4.38;55.00;100205.53;5055740;28;20114;-75
2021/04/07 09:16:06;;;;;;;8.73;2.63;;;;;;;4.20;55.68;100200.06;5076013;28;20028;-75
2021/04/07 09:18:34;;;;;;;7.85;2.00;;;;;;;4.29;56.12;100189.72;5066180;28;20282;-74
2021/04/07 09:21:01;;;;;;;8.57;2.90;;;;;;;4.57;55.24;100195.34;5055508;28;20037;-75
2021/04/07 09:23:32;;;;;;;12.18;3.08;;;;;;;4.47;54.92;100194.34;5055377;28;20054;-75
2021/04/07 09:26:22;;;;;;;8.65;1.90;;;;;;;4.31;53.74;100193.25;5073154;28;20036;-75
2021/04/07 09:28:49;;;;;;;13.05;3.78;;;;;;;4.47;54.22;100188.22;5068116;28;20395;-75
2021/04/07 09:31:39;;;;;;;12.40;4.55;;;;;;;4.72;54.03;100195.53;5073150;28;20040;-75
2021/04/07 09:34:05;;;;;;;9.15;2.22;;;;;;;4.62;53.32;100188.44;5073073;28;20497;-75
2021/04/07 09:36:41;;;;;;;9.40;2.63;;;;;;;4.60;51.50;100221.50;5063299;28;20048;-74
2021/04/07 09:39:14;;;;;;;11.48;2.45;;;;;;;4.60;51.62;100195.38;5072977;28;20039;-75
2021/04/07 09:41:42;;;;;;;9.30;1.95;;;;;;;4.58;52.36;100194.47;5073037;28;20121;-75
2021/04/07 09:44:09;;;;;;;13.32;2.65;;;;;;;4.71;52.37;100203.34;5072848;28;20043;-75
2021/04/07 09:46:36;;;;;;;10.80;2.72;;;;;;;4.76;49.71;100199.06;5072712;28;20082;-75
2021/04/07 09:49:07;;;;;;;6.90;1.75;;;;;;;4.86;49.86;100203.53;5072790;28;20035;-75
2021/04/07 09:51:37;;;;;;;8.13;1.85;;;;;;;4.80;49.34;100217.41;5072791;28;20115;-75
2021/04/07 09:54:19;;;;;;;6.35;1.65;;;;;;;4.70;47.91;100215.53;5072712;28;20032;-75
2021/04/07 09:57:11;;;;;;;4.50;1.33;;;;;;;4.85;47.69;100209.63;5072544;28;20036;-75
2021/04/07 09:59:47;;;;;;;8.32;1.55;;;;;;;4.87;46.10;100209.63;5065578;28;20028;-75
2021/04/07 10:02:21;;;;;;;6.75;1.48;;;;;;;4.87;46.63;100220.09;5072619;28;20036;-75
2021/04/07 10:04:47;;;;;;;7.13;1.67;;;;;;;4.81;47.37;100232.22;5072448;28;20166;-74
2021/04/07 10:07:17;;;;;;;8.38;1.70;;;;;;;4.72;47.90;100224.28;5072220;28;20515;-75
2021/04/07 10:09:50;;;;;;;6.93;1.38;;;;;;;4.71;47.54;100222.50;5072335;28;20028;-75
2021/04/07 10:12:20;;;;;;;5.38;1.40;;;;;;;4.72;47.90;100236.50;5072506;28;20036;-75
2021/04/07 10:14:49;;;;;;;9.02;2.13;;;;;;;4.78;48.66;100236.56;5054440;28;20037;-74
2021/04/07 10:17:16;;;;;;;8.02;2.40;;;;;;;4.72;48.21;100244.34;5072122;28;20036;-74
2021/04/07 10:19:44;;;;;;;7.72;1.55;;;;;;;4.72;48.73;100244.34;5072181;28;20081;-75
2021/04/07 10:22:17;;;;;;;9.10;2.10;;;;;;;4.97;49.66;100242.88;5072157;28;20031;-75
2021/04/07 10:24:44;;;;;;;7.05;1.80;;;;;;;5.12;49.24;100243.06;5072032;28;20029;-75
2021/04/07 10:27:19;;;;;;;11.57;2.30;;;;;;;5.15;48.67;100252.69;5071807;28;20035;-75
2021/04/07 10:29:44;;;;;;;11.65;4.28;;;;;;;5.33;48.81;100244.16;5071166;28;20032;-75
2021/04/07 10:32:18;;;;;;;9.88;1.90;;;;;;;5.45;47.10;100242.56;5071486;28;20032;-75
2021/04/07 10:34:47;;;;;;;6.28;1.60;;;;;;;5.43;47.18;100252.13;5070739;28;20635;-75
2021/04/07 10:37:18;;;;;;;4.53;1.38;;;;;;;5.58;47.64;100242.66;5071684;28;20513;-75
2021/04/07 10:39:44;;;;;;;7.60;1.85;;;;;;;5.82;46.22;100247.25;5070983;28;20064;-75
2021/04/07 10:42:18;;;;;;;7.68;1.67;;;;;;;5.58;45.97;100243.56;5071683;28;20074;-75
2021/04/07 10:44:55;;;;;;;7.50;2.10;;;;;;;5.60;46.05;100244.41;5070489;28;20048;-75
2021/04/07 10:47:22;;;;;;;8.55;1.73;;;;;;;5.46;44.70;100246.03;5069625;28;20040;-75
2021/04/07 10:49:52;;;;;;;8.80;1.90;;;;;;;5.42;45.70;100259.94;5051397;28;20529;-77
2021/04/07 10:52:35;;;;;;;5.10;1.67;;;;;;;5.38;46.18;100245.97;5071637;28;20159;-75
2021/04/07 10:55:03;;;;;;;11.57;2.50;;;;;;;5.72;45.37;100230.59;5072039;28;20029;-78
2021/04/07 10:57:34;;;;;;;8.43;1.90;;;;;;;6.11;44.31;100231.81;5072047;28;20032;-75
2021/04/07 11:00:00;;;;;;;10.88;2.25;;;;;;;6.45;45.03;100239.88;5071366;28;20398;-75
2021/04/07 11:02:25;;;;;;;9.82;2.55;;;;;;;6.46;42.75;100234.63;5066018;28;20151;-76
2021/04/07 11:04:51;;;;;;;5.80;1.85;;;;;;;6.56;42.93;100240.81;5073330;28;20096;-78
2021/04/07 11:07:17;;;;;;;7.03;1.75;;;;;;;6.76;42.78;100243.56;5055001;28;20040;-76
2021/04/07 11:09:49;;;;;;;9.38;2.38;;;;;;;6.82;42.89;100237.44;5071992;28;20052;-75
2021/04/07 11:12:16;;;;;;;8.43;2.13;;;;;;;6.98;44.16;100227.00;5070759;28;20036;-76
2021/04/07 11:14:50;;;;;;;5.35;2.10;;;;;;;6.87;41.50;100241.84;5071265;28;20066;-75
2021/04/07 11:17:17;;;;;;;10.40;2.08;;;;;;;7.11;42.32;100233.19;5071567;28;20406;-75
2021/04/07 11:19:42;;;;;;;6.43;1.80;;;;;;;7.40;42.76;100235.00;5057841;28;20572;-75
2021/04/07 11:22:09;;;;;;;4.47;1.83;;;;;;;7.09;40.66;100231.41;5053475;28;20044;-76
2021/04/07 11:24:36;;;;;;;5.97;1.90;;;;;;;7.11;41.16;100250.69;5071247;28;20047;-74
2021/04/07 11:27:01;;;;;;;6.93;1.80;;;;;;;7.10;42.11;100215.69;5070901;28;20036;-75
2021/04/07 11:29:27;;;;;;;7.35;1.77;;;;;;;7.24;43.15;100223.59;5071000;28;20036;-75
2021/04/07 11:31:55;;;;;;;8.55;2.45;;;;;;;7.46;40.71;100264.75;5071018;28;20060;-75
2021/04/07 11:34:27;;;;;;;7.10;2.10;;;;;;;7.40;40.49;100225.38;5053086;28;20394;-75
2021/04/07 11:37:18;;;;;;;8.10;1.95;;;;;;;7.50;41.77;100241.16;5070851;28;20028;-75